Tropical Cyclones
[Index]
Main Index Home Page Stock Weather Photos Extreme Storms Discussion Storm News and Storm Chasing Reports Tropical Cyclones / Hurricanes / Typhoons Weather Data and Links Wild Fires / Bushfires Weather Observation Techniques Weather Picture Catalogue Tornado Pictures and Reports Stock Video Footage and DVDs for sale
Season 2002-2003 Tropical Cyclone FARI Track Map
Season 2002-2003 Summaries: [BoM-AU] [JTWC-AU] [JTWC-SIO] [JTWC-SPAC] [JTWC-SH]
<<- Previous TC | JTWC 2002-2003 Season | Next TC ->>

click for intensity scale information  Lat/long Grid: Show Hide

 Date Labels: Show Hide

Joint Typhoon Warning Centre Cyclone Data

Name: FARI

21 Jan 2003 00:00 UTC to 01 Feb 2003 12:00 UTC

    date/time    lat    long     hPa   cat  kts
2003-01-21 00   11.2    81.0    1004         20          
2003-01-21 06   11.6    81.0    1004         20          
2003-01-21 12   12.0    81.1    1004         20          
2003-01-21 18   12.4    81.1    1004         20          
2003-01-22 00   12.7    80.8    1004         20          
2003-01-22 06   12.7    80.2    1004         20          
2003-01-22 12   13.0    79.6    1004         20          
2003-01-22 18   13.4    78.6    1000         30          
2003-01-23 00   13.8    77.5    1000         30          
2003-01-23 06   14.1    76.5    1000         30          
2003-01-23 12   14.5    75.5    1000         30          
2003-01-23 18   14.9    74.4     997         35          
2003-01-24 00   15.2    73.3     997         35          
2003-01-24 06   15.2    72.3    1004         20          
2003-01-24 12   15.0    71.3    1004         20          
2003-01-24 18   14.5    69.7    1004         20          
2003-01-25 00   14.0    68.1    1004         20          
2003-01-25 06   12.6    66.2    1002         25          
2003-01-25 12   12.6    64.4    1004         20          
2003-01-25 18   12.6    62.6    1002         25          
2003-01-26 00   13.1    61.3    1002         25          
2003-01-26 06   13.4    60.0    1002         25          
2003-01-26 12   13.7    58.7    1002         25          
2003-01-26 18   14.1    57.3    1002         25          
2003-01-27 00   14.7    56.0    1002         25          
2003-01-27 06   15.9    54.9    1002         25          
2003-01-27 12   17.4    54.0    1002         25          
2003-01-27 18   18.1    52.9    1000         30          
2003-01-28 00   18.6    52.0     997         35          
2003-01-28 06   19.1    51.1     991    1    45          
2003-01-28 12   19.6    50.2     991    1    45          
2003-01-28 18   20.0    49.5     984    2    55          
2003-01-29 00   20.3    48.6     984    2    55          
2003-01-29 06   20.6    47.2     987    1    50          
2003-01-29 12   21.1    45.8     997         35          
2003-01-29 18   22.1    43.5     997         35          
2003-01-30 00   22.4    42.7    1000         30          
2003-01-30 06   23.1    42.1    1000         30          
2003-01-30 12   24.0    42.2    1000         30          
2003-01-30 18   24.9    42.3    1002         25          
2003-01-31 00   26.3    42.7    1002         25          
2003-01-31 06   27.6    43.2    1002         25          
2003-01-31 12   29.0    43.7    1002         25          
2003-01-31 18   30.5    44.1    1002         25          
2003-02-01 00   31.9    44.7    1002         25          
2003-02-01 06   33.2    45.5    1002         25          
2003-02-01 12   34.6    47.0    1002         25          
Winds are 1-min average.

Tropical cyclone tracks developed by Michael Bath using data from the Joint Typhoon Warning Centre Best Tracks and Google Maps.


[Australian Severe Weather index] [Copyright Notice] [Email Contacts] [Search This Site] [Privacy Policy]
Document: tropical_cyclone_fari.htm Updated: 28 June 2017